Time;durP1;ratioP1;P1;durP2;ratioP2;P2;SDS_P1;SDS_P2;PMS_P1;PMS_P2;Temp;Humidity;BMP_temperature;BMP_pressure;BME280_temperature;BME280_humidity;BME280_pressure;Samples;Min_cycle;Max_cycle;Signal;HPM_P1;HPM_P2
2023/09/10 00:01:50;;;;;;;12.20;11.10;;;;;;;;;;5041904;28;20096;-82
2023/09/10 00:04:16;;;;;;;12.60;11.35;;;;;;;;;;5042588;28;20392;-82
2023/09/10 00:06:42;;;;;;;12.40;11.30;;;;;;;;;;5040790;28;20049;-82
2023/09/10 00:09:09;;;;;;;12.10;11.00;;;;;;;;;;5038318;28;20073;-84
2023/09/10 00:11:35;;;;;;;14.65;13.38;;;;;;;;;;5041226;28;20045;-81
2023/09/10 00:14:01;;;;;;;16.45;15.05;;;;;;;;;;5023415;28;20048;-81
2023/09/10 00:16:27;;;;;;;13.23;12.02;;;;;;;;;;5041284;28;20058;-82
2023/09/10 00:18:53;;;;;;;13.50;12.30;;;;;;;;;;5039964;28;20053;-81
2023/09/10 00:21:19;;;;;;;16.48;15.07;;;;;;;;;;5038341;28;20052;-82
2023/09/10 00:23:45;;;;;;;18.95;17.30;;;;;;;;;;5040973;28;20488;-81
2023/09/10 00:26:12;;;;;;;16.67;15.23;;;;;;;;;;5041023;28;20042;-82
2023/09/10 00:28:38;;;;;;;13.45;12.18;;;;;;;;;;5042626;28;20053;-81
2023/09/10 00:31:04;;;;;;;13.18;12.07;;;;;;;;;;5038946;28;20052;-81
2023/09/10 00:33:30;;;;;;;12.27;10.90;;;;;;;;;;5041503;28;20080;-82
2023/09/10 00:35:57;;;;;;;10.15;9.15;;;;;;;;;;5041471;28;20042;-81
2023/09/10 00:38:23;;;;;;;9.80;7.38;;;;;;;;;;5022702;28;20492;-82
2023/09/10 00:40:49;;;;;;;8.02;7.22;;;;;;;;;;5040443;28;20450;-82
2023/09/10 00:43:15;;;;;;;8.15;6.53;;;;;;;;;;5040679;28;20045;-82
2023/09/10 00:45:41;;;;;;;8.45;7.63;;;;;;;;;;5040195;28;20480;-82
2023/09/10 00:48:07;;;;;;;10.25;9.43;;;;;;;;;;5022262;28;20045;-83
2023/09/10 00:50:33;;;;;;;10.10;9.30;;;;;;;;;;5023276;28;20041;-82
2023/09/10 00:53:00;;;;;;;10.82;9.93;;;;;;;;;;5042346;28;20045;-82
2023/09/10 00:55:29;;;;;;;11.27;10.15;;;;;;;;;;5042202;28;20045;-82
2023/09/10 00:57:55;;;;;;;10.75;9.85;;;;;;;;;;5039858;28;20112;-82
2023/09/10 01:00:21;;;;;;;10.38;9.38;;;;;;;;;;5037478;28;20053;-82
2023/09/10 01:02:50;;;;;;;10.55;9.63;;;;;;;;;;5039245;28;20041;-81
2023/09/10 01:05:17;;;;;;;11.80;10.75;;;;;;;;;;5040148;28;20120;-81
2023/09/10 01:07:43;;;;;;;10.27;9.38;;;;;;;;;;5040003;28;20072;-81
2023/09/10 01:10:09;;;;;;;10.40;9.40;;;;;;;;;;5039415;28;20053;-81
2023/09/10 01:12:38;;;;;;;11.40;10.30;;;;;;;;;;5038289;28;20369;-81
2023/09/10 01:15:21;;;;;;;12.63;11.32;;;;;;;;;;5039106;28;20037;-82
2023/09/10 01:17:56;;;;;;;12.98;11.77;;;;;;;;;;5039476;28;20104;-82
2023/09/10 01:20:36;;;;;;;10.18;9.27;;;;;;;;;;5039286;28;20134;-81
2023/09/10 01:23:07;;;;;;;13.07;11.35;;;;;;;;;;5038982;28;20504;-81
2023/09/10 01:25:34;;;;;;;14.35;12.90;;;;;;;;;;5039157;28;20496;-81
2023/09/10 01:28:03;;;;;;;17.48;14.73;;;;;;;;;;5039043;28;20045;-81
2023/09/10 01:30:29;;;;;;;16.15;14.65;;;;;;;;;;5038580;28;20052;-81
2023/09/10 01:32:59;;;;;;;16.05;14.55;;;;;;;;;;5006953;28;20061;-82
2023/09/10 01:35:40;;;;;;;14.85;13.35;;;;;;;;;;5023205;28;20045;-82
2023/09/10 01:38:27;;;;;;;15.48;12.68;;;;;;;;;;5040262;28;20054;-83
2023/09/10 01:41:12;;;;;;;15.80;14.10;;;;;;;;;;5037637;28;20114;-81
2023/09/10 01:43:39;;;;;;;13.73;12.52;;;;;;;;;;5039352;28;20046;-81
2023/09/10 01:46:05;;;;;;;13.05;11.40;;;;;;;;;;5021147;28;20045;-80
2023/09/10 01:48:32;;;;;;;10.15;9.15;;;;;;;;;;5039116;28;20042;-84
2023/09/10 01:51:02;;;;;;;11.57;10.48;;;;;;;;;;5039451;28;20048;-81
2023/09/10 01:53:28;;;;;;;12.80;11.63;;;;;;;;;;5043587;28;20049;-82
2023/09/10 01:55:54;;;;;;;11.05;10.02;;;;;;;;;;5041008;28;20049;-81
2023/09/10 01:58:20;;;;;;;11.63;10.13;;;;;;;;;;5036542;28;20047;-82
2023/09/10 02:00:46;;;;;;;12.05;10.90;;;;;;;;;;5044058;28;20133;-81
2023/09/10 02:03:12;;;;;;;13.48;12.18;;;;;;;;;;5044176;28;20504;-82
2023/09/10 02:05:38;;;;;;;14.15;12.88;;;;;;;;;;5052471;28;20067;-81
2023/09/10 02:08:05;;;;;;;14.68;13.27;;;;;;;;;;5054084;28;20049;-82
2023/09/10 02:10:32;;;;;;;15.48;13.98;;;;;;;;;;5062113;28;20053;-82
2023/09/10 02:13:01;;;;;;;14.25;12.95;;;;;;;;;;5066222;28;20060;-82
2023/09/10 02:15:27;;;;;;;16.67;15.05;;;;;;;;;;5053097;28;20062;-81
2023/09/10 02:17:53;;;;;;;16.63;15.20;;;;;;;;;;5051104;28;20052;-82
2023/09/10 02:20:19;;;;;;;18.35;16.73;;;;;;;;;;5047832;28;20525;-82
2023/09/10 02:22:45;;;;;;;19.55;17.70;;;;;;;;;;5049220;28;20119;-82
2023/09/10 02:25:12;;;;;;;18.52;16.92;;;;;;;;;;5047542;28;20049;-83
2023/09/10 02:27:38;;;;;;;20.75;18.85;;;;;;;;;;5039766;28;20045;-82
2023/09/10 02:30:06;;;;;;;19.42;17.50;;;;;;;;;;5043021;28;20033;-82
2023/09/10 02:32:32;;;;;;;19.70;18.10;;;;;;;;;;5044312;28;20048;-82
2023/09/10 02:34:58;;;;;;;17.40;15.52;;;;;;;;;;5025200;28;20109;-82
2023/09/10 02:37:24;;;;;;;16.65;15.25;;;;;;;;;;5042607;28;20049;-82
2023/09/10 02:39:50;;;;;;;15.68;14.38;;;;;;;;;;5043111;28;20046;-81
2023/09/10 02:42:19;;;;;;;15.07;13.85;;;;;;;;;;5042475;28;20064;-82
2023/09/10 02:44:45;;;;;;;15.77;14.38;;;;;;;;;;5029939;28;20053;-82
2023/09/10 02:47:11;;;;;;;14.52;13.30;;;;;;;;;;5050828;28;20678;-82
2023/09/10 02:49:40;;;;;;;19.67;17.88;;;;;;;;;;5049403;28;20065;-82
2023/09/10 02:52:06;;;;;;;21.67;19.80;;;;;;;;;;5051219;28;20042;-82
2023/09/10 02:54:35;;;;;;;21.27;19.48;;;;;;;;;;5049573;28;20047;-81
2023/09/10 02:57:01;;;;;;;26.27;24.08;;;;;;;;;;5048630;28;20085;-81
2023/09/10 02:59:27;;;;;;;29.20;26.63;;;;;;;;;;5045712;28;20041;-81
2023/09/10 03:01:53;;;;;;;25.05;22.95;;;;;;;;;;5046207;28;20097;-83
2023/09/10 03:04:20;;;;;;;26.95;24.45;;;;;;;;;;5038575;28;20440;-84
2023/09/10 03:06:47;;;;;;;26.90;24.30;;;;;;;;;;5033668;28;20034;-81
2023/09/10 03:09:14;;;;;;;33.25;29.88;;;;;;;;;;5046024;28;20045;-81
2023/09/10 03:11:40;;;;;;;31.83;28.75;;;;;;;;;;5029120;28;20050;-81
2023/09/10 03:14:07;;;;;;;27.25;24.58;;;;;;;;;;5047283;28;20038;-81
2023/09/10 03:16:34;;;;;;;27.35;24.55;;;;;;;;;;5047279;28;20050;-81
2023/09/10 03:19:00;;;;;;;25.63;23.23;;;;;;;;;;5046152;28;20060;-81
2023/09/10 03:21:29;;;;;;;24.67;22.17;;;;;;;;;;5041454;28;20047;-81
2023/09/10 03:23:56;;;;;;;23.85;21.52;;;;;;;;;;5039404;28;20195;-82
2023/09/10 03:26:22;;;;;;;23.42;21.13;;;;;;;;;;5039777;28;20059;-81
2023/09/10 03:28:48;;;;;;;25.95;23.45;;;;;;;;;;5038612;28;20065;-81
2023/09/10 03:31:14;;;;;;;24.42;21.67;;;;;;;;;;5040543;28;20056;-81
2023/09/10 03:33:44;;;;;;;25.27;22.77;;;;;;;;;;5040246;28;20121;-81
2023/09/10 03:36:10;;;;;;;28.00;25.05;;;;;;;;;;5038340;28;20046;-81
2023/09/10 03:38:36;;;;;;;33.70;30.42;;;;;;;;;;5040261;28;20095;-81
2023/09/10 03:41:02;;;;;;;40.90;36.63;;;;;;;;;;5041001;28;20041;-82
2023/09/10 03:43:28;;;;;;;40.90;36.80;;;;;;;;;;5040271;28;20077;-82
2023/09/10 03:45:54;;;;;;;38.90;34.85;;;;;;;;;;5038533;28;20041;-80
2023/09/10 03:48:21;;;;;;;37.03;33.38;;;;;;;;;;5037658;28;20053;-83
2023/09/10 03:50:47;;;;;;;35.83;32.22;;;;;;;;;;5039331;28;20125;-82
2023/09/10 03:53:13;;;;;;;32.90;29.80;;;;;;;;;;5039369;28;20450;-82
2023/09/10 03:55:40;;;;;;;25.85;23.55;;;;;;;;;;5036282;28;20054;-82
2023/09/10 03:58:06;;;;;;;25.48;23.15;;;;;;;;;;5039334;28;20048;-82
2023/09/10 04:00:33;;;;;;;23.90;21.75;;;;;;;;;;5038691;28;20041;-82
2023/09/10 04:02:59;;;;;;;21.63;19.58;;;;;;;;;;5038596;28;20110;-82
2023/09/10 04:05:25;;;;;;;25.23;22.92;;;;;;;;;;5035428;28;20084;-81
2023/09/10 04:07:51;;;;;;;25.23;22.92;;;;;;;;;;5041118;28;20046;-82
2023/09/10 04:10:18;;;;;;;26.30;24.00;;;;;;;;;;5039963;28;20092;-82
2023/09/10 04:12:44;;;;;;;26.58;24.20;;;;;;;;;;5023133;28;20483;-81
2023/09/10 04:15:10;;;;;;;29.20;26.60;;;;;;;;;;5041763;28;20133;-82
2023/09/10 04:17:36;;;;;;;34.42;31.17;;;;;;;;;;5039441;28;20476;-81
2023/09/10 04:20:07;;;;;;;35.00;31.67;;;;;;;;;;5035192;28;20042;-82
2023/09/10 04:22:33;;;;;;;35.00;31.70;;;;;;;;;;5023996;28;20048;-82
2023/09/10 04:24:59;;;;;;;37.60;34.10;;;;;;;;;;5042927;28;20045;-81
2023/09/10 04:27:25;;;;;;;37.67;34.25;;;;;;;;;;5037597;28;20060;-82
2023/09/10 04:29:53;;;;;;;35.90;32.75;;;;;;;;;;5038069;28;20520;-82
2023/09/10 04:32:19;;;;;;;36.30;33.00;;;;;;;;;;5036646;28;20058;-82
2023/09/10 04:34:45;;;;;;;35.95;32.78;;;;;;;;;;5038520;28;20049;-82
2023/09/10 04:37:11;;;;;;;33.10;30.38;;;;;;;;;;5020766;28;20053;-82
2023/09/10 04:39:41;;;;;;;33.55;30.88;;;;;;;;;;5037190;28;20096;-82
2023/09/10 04:42:07;;;;;;;31.80;29.20;;;;;;;;;;5024067;28;20408;-83
2023/09/10 04:44:34;;;;;;;30.70;28.20;;;;;;;;;;5021868;28;20041;-82
2023/09/10 04:47:00;;;;;;;28.55;26.35;;;;;;;;;;5039199;28;20179;-82
2023/09/10 04:49:26;;;;;;;29.80;27.40;;;;;;;;;;5036094;28;20080;-82
2023/09/10 04:51:52;;;;;;;28.90;26.60;;;;;;;;;;5033481;28;20442;-83
2023/09/10 04:54:18;;;;;;;27.70;25.48;;;;;;;;;;5037963;28;20042;-82
2023/09/10 04:56:47;;;;;;;27.88;25.67;;;;;;;;;;5036477;28;20193;-81
2023/09/10 04:59:13;;;;;;;28.55;26.30;;;;;;;;;;5036936;28;20049;-83
2023/09/10 05:01:39;;;;;;;28.65;26.27;;;;;;;;;;5038279;28;20045;-82
2023/09/10 05:04:05;;;;;;;26.30;24.20;;;;;;;;;;5037999;28;20049;-84
2023/09/10 05:06:31;;;;;;;25.65;23.65;;;;;;;;;;5038225;28;20054;-82
2023/09/10 05:08:57;;;;;;;25.55;23.65;;;;;;;;;;5038316;28;20091;-82
2023/09/10 05:11:24;;;;;;;24.60;22.80;;;;;;;;;;5028062;28;20104;-82
2023/09/10 05:13:50;;;;;;;24.60;22.80;;;;;;;;;;5025356;28;20125;-82
2023/09/10 05:16:16;;;;;;;24.85;22.95;;;;;;;;;;5027980;28;20053;-81
2023/09/10 05:18:42;;;;;;;24.13;22.33;;;;;;;;;;5035412;28;20662;-82
2023/09/10 05:21:08;;;;;;;23.55;21.70;;;;;;;;;;5044986;28;20087;-82
2023/09/10 05:23:34;;;;;;;23.65;21.75;;;;;;;;;;5037577;28;20073;-81
2023/09/10 05:26:03;;;;;;;23.83;21.92;;;;;;;;;;5020306;28;20472;-81
2023/09/10 05:28:30;;;;;;;22.73;21.02;;;;;;;;;;5020972;28;20052;-82
2023/09/10 05:30:56;;;;;;;23.48;21.48;;;;;;;;;;5038600;28;20044;-82
2023/09/10 05:33:22;;;;;;;24.95;22.90;;;;;;;;;;5038600;28;20412;-81
2023/09/10 05:35:58;;;;;;;24.67;22.77;;;;;;;;;;5038173;28;20079;-82
2023/09/10 05:38:26;;;;;;;26.38;24.27;;;;;;;;;;5035688;28;20432;-81
2023/09/10 05:40:53;;;;;;;26.02;24.08;;;;;;;;;;5020419;28;20033;-82
2023/09/10 05:43:19;;;;;;;25.30;23.20;;;;;;;;;;5039238;28;20056;-81
2023/09/10 05:45:46;;;;;;;23.65;21.75;;;;;;;;;;5037323;28;20410;-82
2023/09/10 05:48:12;;;;;;;23.38;21.67;;;;;;;;;;5038837;28;20041;-82
2023/09/10 05:50:40;;;;;;;20.95;19.40;;;;;;;;;;5036746;28;20033;-81
2023/09/10 05:53:06;;;;;;;21.52;19.88;;;;;;;;;;5035055;28;20049;-84
2023/09/10 05:55:32;;;;;;;20.55;18.98;;;;;;;;;;5036664;28;20415;-82
2023/09/10 05:57:58;;;;;;;17.92;16.63;;;;;;;;;;5038586;28;20099;-82
2023/09/10 06:00:24;;;;;;;19.65;18.15;;;;;;;;;;5037539;28;20419;-82
2023/09/10 06:02:51;;;;;;;20.00;18.50;;;;;;;;;;5037043;28;20041;-82
2023/09/10 06:05:18;;;;;;;18.73;17.23;;;;;;;;;;5032161;28;20053;-82
2023/09/10 06:07:44;;;;;;;17.33;16.02;;;;;;;;;;5043767;28;20041;-82
2023/09/10 06:10:10;;;;;;;16.23;14.93;;;;;;;;;;5020283;28;20051;-82
2023/09/10 06:12:37;;;;;;;15.25;14.05;;;;;;;;;;5029142;28;20094;-82
2023/09/10 06:15:04;;;;;;;16.20;14.70;;;;;;;;;;5040750;28;20068;-83
2023/09/10 06:17:30;;;;;;;16.83;15.32;;;;;;;;;;5038355;28;20115;-82
2023/09/10 06:19:56;;;;;;;17.48;16.08;;;;;;;;;;5035943;28;20484;-80
2023/09/10 06:22:22;;;;;;;16.63;15.13;;;;;;;;;;5036086;28;20045;-83
2023/09/10 06:24:48;;;;;;;16.30;14.93;;;;;;;;;;5017349;28;20045;-83
2023/09/10 06:27:14;;;;;;;15.85;14.55;;;;;;;;;;5036861;28;20503;-82
2023/09/10 06:29:40;;;;;;;15.00;13.70;;;;;;;;;;5038619;28;20042;-82
2023/09/10 06:32:06;;;;;;;14.25;13.05;;;;;;;;;;5036518;28;20057;-83
2023/09/10 06:34:32;;;;;;;15.20;13.70;;;;;;;;;;5036491;28;20384;-82
2023/09/10 06:36:59;;;;;;;14.65;13.45;;;;;;;;;;5037028;28;20061;-83
2023/09/10 06:39:25;;;;;;;14.88;13.68;;;;;;;;;;5036754;28;20121;-87
2023/09/10 06:41:54;;;;;;;19.92;18.27;;;;;;;;;;5036341;28;20044;-83
2023/09/10 06:44:20;;;;;;;21.58;19.85;;;;;;;;;;5036318;28;20041;-85
2023/09/10 06:46:47;;;;;;;25.95;23.67;;;;;;;;;;5019015;28;20040;-84
2023/09/10 06:49:13;;;;;;;29.90;27.40;;;;;;;;;;5035076;28;20051;-85
2023/09/10 06:51:39;;;;;;;33.78;30.90;;;;;;;;;;5031661;28;20046;-84
2023/09/10 06:54:05;;;;;;;34.00;31.00;;;;;;;;;;5030934;28;20069;-84
2023/09/10 06:56:31;;;;;;;37.42;34.13;;;;;;;;;;5016024;28;20408;-84
2023/09/10 06:58:57;;;;;;;35.53;32.38;;;;;;;;;;5033868;28;20542;-84
2023/09/10 07:01:23;;;;;;;36.03;32.45;;;;;;;;;;5037964;28;20301;-84
2023/09/10 07:03:52;;;;;;;37.45;34.28;;;;;;;;;;5036689;28;20095;-84
2023/09/10 07:06:19;;;;;;;31.63;29.00;;;;;;;;;;5028773;28;20037;-84
2023/09/10 07:08:45;;;;;;;34.13;31.20;;;;;;;;;;5023615;28;20037;-85
2023/09/10 07:11:11;;;;;;;34.38;31.20;;;;;;;;;;5012091;28;20045;-83
2023/09/10 07:13:39;;;;;;;32.97;30.00;;;;;;;;;;5035527;28;20068;-84
2023/09/10 07:16:06;;;;;;;33.45;30.42;;;;;;;;;;5036053;28;20054;-84
2023/09/10 07:18:33;;;;;;;34.53;31.63;;;;;;;;;;5045886;28;20049;-83
2023/09/10 07:21:02;;;;;;;36.05;32.90;;;;;;;;;;5034172;28;20055;-84
2023/09/10 07:23:28;;;;;;;40.05;36.47;;;;;;;;;;5032243;28;20054;-83
2023/09/10 07:25:54;;;;;;;36.30;32.95;;;;;;;;;;5024225;28;20381;-83
2023/09/10 07:28:20;;;;;;;38.63;34.90;;;;;;;;;;5029593;28;20519;-84
2023/09/10 07:30:47;;;;;;;37.95;34.55;;;;;;;;;;5033862;28;20068;-83
2023/09/10 07:33:13;;;;;;;36.33;32.92;;;;;;;;;;5019309;28;20042;-83
2023/09/10 07:35:39;;;;;;;37.30;33.83;;;;;;;;;;5037334;28;20049;-83
2023/09/10 07:38:05;;;;;;;38.35;35.13;;;;;;;;;;5037630;28;20049;-82
2023/09/10 07:40:31;;;;;;;35.53;32.53;;;;;;;;;;5035158;28;20057;-83
2023/09/10 07:42:59;;;;;;;37.70;34.50;;;;;;;;;;5036641;28;20042;-82
2023/09/10 07:45:25;;;;;;;37.72;34.33;;;;;;;;;;5036995;28;20060;-83
2023/09/10 07:47:51;;;;;;;37.90;34.55;;;;;;;;;;5020088;28;20048;-82
2023/09/10 07:50:17;;;;;;;37.22;34.05;;;;;;;;;;5041317;28;20096;-82
2023/09/10 07:52:43;;;;;;;36.97;33.78;;;;;;;;;;5038808;28;20045;-82
2023/09/10 07:55:09;;;;;;;38.17;34.95;;;;;;;;;;5034371;28;20041;-84
2023/09/10 07:57:35;;;;;;;38.92;35.65;;;;;;;;;;5021737;28;20510;-84
2023/09/10 08:00:01;;;;;;;33.42;30.33;;;;;;;;;;5038712;28;20041;-84
2023/09/10 08:02:29;;;;;;;34.65;31.27;;;;;;;;;;5039773;28;20049;-83
2023/09/10 08:04:55;;;;;;;33.33;30.23;;;;;;;;;;5039516;28;20052;-83
2023/09/10 08:07:21;;;;;;;33.95;30.95;;;;;;;;;;5040146;28;20041;-84
2023/09/10 08:09:48;;;;;;;33.95;30.58;;;;;;;;;;5037863;28;20049;-84
2023/09/10 08:12:14;;;;;;;35.28;32.05;;;;;;;;;;5039440;28;20396;-83
2023/09/10 08:14:41;;;;;;;33.45;30.55;;;;;;;;;;5040722;28;20057;-83
2023/09/10 08:17:07;;;;;;;34.95;31.75;;;;;;;;;;5040028;28;20068;-83
2023/09/10 08:19:33;;;;;;;35.42;32.20;;;;;;;;;;5040279;28;20053;-82
2023/09/10 08:21:59;;;;;;;35.10;31.95;;;;;;;;;;5039377;28;20052;-83
2023/09/10 08:24:25;;;;;;;32.15;29.23;;;;;;;;;;5036268;28;20187;-85
2023/09/10 08:26:51;;;;;;;32.60;29.50;;;;;;;;;;5039879;28;20068;-83
2023/09/10 08:29:17;;;;;;;27.80;25.05;;;;;;;;;;5041332;28;20476;-83
2023/09/10 08:31:43;;;;;;;26.92;24.33;;;;;;;;;;5037271;28;20037;-83
2023/09/10 08:34:10;;;;;;;25.77;23.35;;;;;;;;;;5039509;28;20053;-83
2023/09/10 08:36:36;;;;;;;24.33;22.05;;;;;;;;;;5039705;28;20122;-83
2023/09/10 08:39:02;;;;;;;21.15;19.10;;;;;;;;;;5035139;28;20042;-83
2023/09/10 08:41:47;;;;;;;22.48;20.42;;;;;;;;;;5024034;28;20081;-82
2023/09/10 08:44:17;;;;;;;23.80;21.50;;;;;;;;;;5028881;28;20044;-82
2023/09/10 08:46:44;;;;;;;23.83;21.35;;;;;;;;;;5041624;28;20049;-81
2023/09/10 08:49:12;;;;;;;24.95;22.55;;;;;;;;;;5036212;28;20056;-82
2023/09/10 08:51:39;;;;;;;20.50;18.42;;;;;;;;;;5023842;28;20404;-82
2023/09/10 08:54:05;;;;;;;23.20;20.90;;;;;;;;;;5039768;28;20044;-82
2023/09/10 08:56:32;;;;;;;19.02;16.42;;;;;;;;;;5041012;28;20038;-81
2023/09/10 08:58:58;;;;;;;22.58;20.23;;;;;;;;;;5041498;28;20045;-82
2023/09/10 09:01:25;;;;;;;19.23;17.20;;;;;;;;;;5038803;28;20289;-81
2023/09/10 09:03:51;;;;;;;16.65;14.95;;;;;;;;;;5036462;28;20041;-82
2023/09/10 09:06:17;;;;;;;20.33;18.30;;;;;;;;;;5040608;28;20046;-82
2023/09/10 09:08:48;;;;;;;19.00;17.20;;;;;;;;;;5041192;28;20041;-81
2023/09/10 09:11:15;;;;;;;17.60;15.73;;;;;;;;;;5022255;28;20074;-82
2023/09/10 09:13:43;;;;;;;17.75;16.05;;;;;;;;;;5040763;28;20075;-82
2023/09/10 09:16:10;;;;;;;18.23;16.33;;;;;;;;;;5042561;28;20049;-81
2023/09/10 09:18:37;;;;;;;21.60;18.90;;;;;;;;;;5024507;28;20041;-82
2023/09/10 09:21:10;;;;;;;18.75;16.83;;;;;;;;;;5039468;28;20445;-82
2023/09/10 09:23:36;;;;;;;;;;;;;;;;;;5036016;28;20428;-82
2023/09/10 09:26:04;;;;;;;16.13;11.68;;;;;;;;;;5022775;28;20298;-81
2023/09/10 09:28:31;;;;;;;15.35;12.55;;;;;;;;;;5021394;28;20412;-82
2023/09/10 09:30:57;;;;;;;14.30;11.40;;;;;;;;;;5023346;28;20430;-82
2023/09/10 09:33:23;;;;;;;15.95;13.20;;;;;;;;;;5040771;28;20068;-82
2023/09/10 09:35:50;;;;;;;14.35;12.63;;;;;;;;;;5016125;28;20115;-82
2023/09/10 09:38:16;;;;;;;15.38;13.45;;;;;;;;;;5037266;28;20045;-81
2023/09/10 09:40:42;;;;;;;15.55;12.60;;;;;;;;;;5030889;28;20054;-81
2023/09/10 09:43:09;;;;;;;16.13;14.32;;;;;;;;;;5035215;28;20050;-83
2023/09/10 09:45:39;;;;;;;16.50;13.60;;;;;;;;;;5038050;28;20045;-82
2023/09/10 09:48:06;;;;;;;17.48;15.77;;;;;;;;;;5035563;28;20045;-82
2023/09/10 09:50:32;;;;;;;14.80;13.07;;;;;;;;;;5035853;28;20049;-82
2023/09/10 09:52:58;;;;;;;13.68;12.07;;;;;;;;;;5035746;28;20063;-81
2023/09/10 09:55:26;;;;;;;21.02;12.60;;;;;;;;;;5023605;28;20129;-81
2023/09/10 09:57:52;;;;;;;15.15;12.82;;;;;;;;;;5040308;28;20041;-82
2023/09/10 10:00:18;;;;;;;14.73;12.75;;;;;;;;;;5036399;28;20065;-83
2023/09/10 10:02:45;;;;;;;14.35;12.85;;;;;;;;;;5022743;28;20443;-82
2023/09/10 10:05:12;;;;;;;15.05;13.05;;;;;;;;;;5039839;28;20053;-82
2023/09/10 10:07:41;;;;;;;20.60;14.15;;;;;;;;;;5039453;28;20041;-81
2023/09/10 10:10:08;;;;;;;15.45;13.52;;;;;;;;;;5038985;28;20080;-82
2023/09/10 10:12:34;;;;;;;14.80;12.85;;;;;;;;;;5038832;28;20460;-81
2023/09/10 10:15:01;;;;;;;16.20;14.57;;;;;;;;;;5039906;28;20108;-81
2023/09/10 10:17:27;;;;;;;19.75;13.85;;;;;;;;;;5037008;28;20056;-81
2023/09/10 10:19:53;;;;;;;18.75;14.05;;;;;;;;;;5039676;28;20064;-83
2023/09/10 10:22:22;;;;;;;15.30;12.18;;;;;;;;;;5034771;28;20041;-82
2023/09/10 10:24:51;;;;;;;16.98;12.15;;;;;;;;;;5037642;28;20049;-83
2023/09/10 10:27:17;;;;;;;17.10;13.80;;;;;;;;;;5018532;28;20063;-82
2023/09/10 10:29:43;;;;;;;16.80;14.30;;;;;;;;;;5037620;28;20042;-83
2023/09/10 10:32:39;;;;;;;17.17;12.55;;;;;;;;;;5036717;28;20044;-82
2023/09/10 10:35:06;;;;;;;15.13;12.80;;;;;;;;;;5023486;28;20065;-83
2023/09/10 10:37:45;;;;;;;15.18;13.60;;;;;;;;;;5040858;28;20054;-82
2023/09/10 10:40:17;;;;;;;14.60;12.65;;;;;;;;;;5039996;28;20107;-82
2023/09/10 10:42:50;;;;;;;14.85;11.70;;;;;;;;;;5037872;28;20053;-82
2023/09/10 10:45:18;;;;;;;16.17;12.32;;;;;;;;;;5038531;28;20055;-83
2023/09/10 10:47:45;;;;;;;16.65;12.57;;;;;;;;;;5020986;28;20049;-83
2023/09/10 10:50:13;;;;;;;17.67;13.00;;;;;;;;;;5039648;28;20056;-82
2023/09/10 10:52:44;;;;;;;13.70;12.00;;;;;;;;;;5038654;28;20072;-81
2023/09/10 10:55:11;;;;;;;14.88;13.15;;;;;;;;;;5040011;28;20048;-82
2023/09/10 10:57:38;;;;;;;14.98;12.35;;;;;;;;;;5039406;28;20048;-81
2023/09/10 11:00:06;;;;;;;17.60;12.30;;;;;;;;;;5038155;28;20049;-81
2023/09/10 11:02:33;;;;;;;17.77;11.65;;;;;;;;;;5039700;28;20045;-81
2023/09/10 11:05:03;;;;;;;18.73;11.73;;;;;;;;;;5040239;28;20107;-82
2023/09/10 11:07:29;;;;;;;;;;;;;;;;;;5039658;28;20449;-82
2023/09/10 11:10:15;;;;;;;15.20;13.75;;;;;;;;;;5037960;28;19921;-83
2023/09/10 11:13:01;;;;;;;19.05;12.15;;;;;;;;;;5034739;28;20095;-81
2023/09/10 11:15:27;;;;;;;14.27;11.40;;;;;;;;;;5036945;28;20053;-82
2023/09/10 11:17:54;;;;;;;15.02;11.20;;;;;;;;;;5032206;28;20117;-82
2023/09/10 11:20:39;;;;;;;12.32;11.00;;;;;;;;;;5019465;28;20051;-82
2023/09/10 11:23:06;;;;;;;11.68;10.38;;;;;;;;;;5024619;28;20073;-81
2023/09/10 11:25:32;;;;;;;14.75;11.40;;;;;;;;;;5027916;28;20052;-81
2023/09/10 11:27:58;;;;;;;14.23;9.05;;;;;;;;;;5036172;28;20444;-82
2023/09/10 11:30:24;;;;;;;15.90;10.15;;;;;;;;;;5047727;28;20038;-82
2023/09/10 11:33:10;;;;;;;13.52;9.32;;;;;;;;;;5047041;28;20164;-81
2023/09/10 11:35:37;;;;;;;17.88;11.07;;;;;;;;;;5047184;28;20037;-82
2023/09/10 11:38:03;;;;;;;13.10;10.35;;;;;;;;;;5043230;28;20048;-82
2023/09/10 11:40:29;;;;;;;16.63;10.85;;;;;;;;;;5041190;28;20046;-81
2023/09/10 11:42:56;;;;;;;15.60;11.05;;;;;;;;;;5043451;28;20519;-81
2023/09/10 11:45:22;;;;;;;12.15;10.32;;;;;;;;;;5048084;28;20129;-81
2023/09/10 11:47:49;;;;;;;14.07;10.20;;;;;;;;;;5047035;28;20132;-82
2023/09/10 11:50:20;;;;;;;14.40;9.85;;;;;;;;;;5046420;28;20044;-82
2023/09/10 11:52:46;;;;;;;;;;;;;;;;;;5046522;28;20045;-82
2023/09/10 11:55:12;;;;;;;17.58;10.32;;;;;;;;;;5046456;28;19925;-82
2023/09/10 11:57:38;;;;;;;15.05;10.30;;;;;;;;;;5046641;28;20167;-83
2023/09/10 12:00:05;;;;;;;17.70;10.57;;;;;;;;;;5043858;28;20038;-82
2023/09/10 12:02:31;;;;;;;17.52;9.70;;;;;;;;;;5044876;28;20046;-81
2023/09/10 12:05:02;;;;;;;14.40;10.70;;;;;;;;;;5044765;28;20049;-82
2023/09/10 12:07:28;;;;;;;13.85;9.82;;;;;;;;;;5046050;28;20041;-82
2023/09/10 12:09:54;;;;;;;15.75;9.80;;;;;;;;;;5045939;28;20044;-81
2023/09/10 12:12:22;;;;;;;18.80;9.20;;;;;;;;;;5046079;28;20064;-81
2023/09/10 12:14:48;;;;;;;20.35;10.15;;;;;;;;;;5045321;28;20037;-82
2023/09/10 12:17:14;;;;;;;16.10;9.60;;;;;;;;;;5046654;28;20060;-81
2023/09/10 12:19:41;;;;;;;16.35;9.73;;;;;;;;;;5047961;28;20148;-82
2023/09/10 12:22:09;;;;;;;15.23;9.68;;;;;;;;;;5049497;28;20041;-81
2023/09/10 12:24:38;;;;;;;21.10;9.35;;;;;;;;;;5050198;28;20056;-81
2023/09/10 12:27:05;;;;;;;14.68;9.00;;;;;;;;;;5046638;28;20041;-81
2023/09/10 12:29:31;;;;;;;16.60;9.60;;;;;;;;;;5048207;28;20114;-82
2023/09/10 12:31:57;;;;;;;16.23;9.57;;;;;;;;;;5054289;28;20043;-81
2023/09/10 12:34:24;;;;;;;18.50;9.02;;;;;;;;;;5044801;28;20211;-82
2023/09/10 12:36:50;;;;;;;14.57;9.13;;;;;;;;;;5026862;28;20049;-81
2023/09/10 12:39:23;;;;;;;14.80;8.73;;;;;;;;;;5043936;28;20124;-82
2023/09/10 12:41:50;;;;;;;16.55;8.82;;;;;;;;;;5043924;28;20484;-81
2023/09/10 12:44:16;;;;;;;20.00;9.20;;;;;;;;;;5039447;28;20101;-83
2023/09/10 12:46:42;;;;;;;18.17;8.77;;;;;;;;;;5039998;28;20042;-82
2023/09/10 12:49:08;;;;;;;18.13;9.02;;;;;;;;;;5039402;28;20161;-83
2023/09/10 12:51:34;;;;;;;15.73;8.15;;;;;;;;;;5037840;28;20041;-82
2023/09/10 12:54:01;;;;;;;18.75;8.68;;;;;;;;;;5038295;28;20045;-85
2023/09/10 12:56:29;;;;;;;24.00;9.35;;;;;;;;;;5041218;28;20061;-84
2023/09/10 12:58:56;;;;;;;18.65;8.85;;;;;;;;;;5042641;28;20045;-84
2023/09/10 13:01:25;;;;;;;20.88;9.55;;;;;;;;;;5037312;28;20041;-84
2023/09/10 13:03:51;;;;;;;19.30;9.07;;;;;;;;;;5024461;28;20052;-83
2023/09/10 13:06:18;;;;;;;24.35;8.73;;;;;;;;;;5043736;28;20045;-84
2023/09/10 13:08:47;;;;;;;28.75;8.93;;;;;;;;;;5039741;28;20500;-84
2023/09/10 13:11:13;;;;;;;26.52;8.65;;;;;;;;;;5039170;28;20514;-84
2023/09/10 13:13:39;;;;;;;28.45;9.23;;;;;;;;;;5038825;28;20105;-83
2023/09/10 13:16:05;;;;;;;22.83;9.27;;;;;;;;;;5019278;28;20407;-83
2023/09/10 13:18:31;;;;;;;19.38;9.27;;;;;;;;;;5038098;28;20049;-83
2023/09/10 13:21:00;;;;;;;18.55;8.38;;;;;;;;;;5036447;28;20491;-83
2023/09/10 13:23:26;;;;;;;17.88;8.43;;;;;;;;;;5036103;28;20134;-83
2023/09/10 13:25:52;;;;;;;23.95;9.10;;;;;;;;;;5036564;28;20492;-85
2023/09/10 13:28:19;;;;;;;20.98;8.10;;;;;;;;;;5029118;28;20061;-85
2023/09/10 13:30:45;;;;;;;18.50;7.85;;;;;;;;;;5029492;28;20041;-84
2023/09/10 13:33:11;;;;;;;24.83;8.30;;;;;;;;;;5022171;28;20056;-85
2023/09/10 13:35:39;;;;;;;20.92;8.20;;;;;;;;;;5021901;28;20045;-84
2023/09/10 13:38:05;;;;;;;20.48;7.35;;;;;;;;;;5036818;28;20085;-83
2023/09/10 13:40:31;;;;;;;29.10;8.60;;;;;;;;;;5034730;28;20049;-83
2023/09/10 13:42:57;;;;;;;25.65;8.02;;;;;;;;;;5037948;28;20045;-84
2023/09/10 13:45:24;;;;;;;22.67;8.25;;;;;;;;;;5034928;28;20120;-83
2023/09/10 13:47:50;;;;;;;21.45;7.93;;;;;;;;;;5036202;28;20053;-84
2023/09/10 13:50:16;;;;;;;29.33;8.18;;;;;;;;;;5037211;28;20045;-84
2023/09/10 13:52:42;;;;;;;27.85;8.60;;;;;;;;;;5038332;28;20041;-83
2023/09/10 13:55:09;;;;;;;30.90;8.70;;;;;;;;;;5036054;28;20111;-84
2023/09/10 13:57:38;;;;;;;27.45;8.70;;;;;;;;;;5033332;28;20041;-84
2023/09/10 14:00:08;;;;;;;25.73;7.93;;;;;;;;;;5018405;28;20060;-84
2023/09/10 14:02:35;;;;;;;22.75;8.00;;;;;;;;;;5019215;28;20084;-85
2023/09/10 14:05:01;;;;;;;30.90;8.10;;;;;;;;;;5036899;28;20037;-85
2023/09/10 14:07:28;;;;;;;26.45;8.25;;;;;;;;;;5018402;28;20120;-85
2023/09/10 14:09:54;;;;;;;19.88;8.02;;;;;;;;;;5035940;28;20076;-85
2023/09/10 14:12:23;;;;;;;25.02;8.00;;;;;;;;;;5025815;28;20045;-84
2023/09/10 14:14:49;;;;;;;23.77;8.05;;;;;;;;;;5028074;28;20046;-85
2023/09/10 14:17:15;;;;;;;21.95;8.70;;;;;;;;;;5025203;28;20493;-84
2023/09/10 14:19:41;;;;;;;21.40;7.60;;;;;;;;;;5032919;28;20046;-84
2023/09/10 14:22:07;;;;;;;23.58;8.13;;;;;;;;;;5028291;28;20042;-84